Time;durP1;ratioP1;P1;durP2;ratioP2;P2;SDS_P1;SDS_P2;PMS_P1;PMS_P2;Temp;Humidity;BMP_temperature;BMP_pressure;BME280_temperature;BME280_humidity;BME280_pressure;Samples;Min_cycle;Max_cycle;Signal;HPM_P1;HPM_P2
2023/03/31 00:02:00;;;;;;;17.25;3.60;;;9.70;99.90;;;;;;4978629;28;20120;-79
2023/03/31 00:04:27;;;;;;;24.40;3.20;;;9.70;99.90;;;;;;4989124;28;20085;-78
2023/03/31 00:06:53;;;;;;;17.00;2.83;;;9.80;99.90;;;;;;4997577;28;20041;-70
2023/03/31 00:09:20;;;;;;;21.77;3.40;;;9.80;99.90;;;;;;5008483;28;20383;-77
2023/03/31 00:11:48;;;;;;;14.27;2.42;;;9.80;99.90;;;;;;5010643;28;20045;-76
2023/03/31 00:14:16;;;;;;;11.85;3.17;;;9.80;99.90;;;;;;4998891;28;20034;-80
2023/03/31 00:16:42;;;;;;;18.05;3.13;;;9.80;99.90;;;;;;4988814;28;20026;-80
2023/03/31 00:19:11;;;;;;;12.37;2.57;;;9.80;99.90;;;;;;4997519;28;20029;-75
2023/03/31 00:21:37;;;;;;;11.98;2.13;;;9.80;99.90;;;;;;4994732;28;20023;-77
2023/03/31 00:24:05;;;;;;;20.57;3.07;;;9.70;99.90;;;;;;5003278;28;20028;-77
2023/03/31 00:26:32;;;;;;;14.15;3.13;;;9.70;99.90;;;;;;5003734;28;20086;-72
2023/03/31 00:28:59;;;;;;;16.15;2.20;;;9.70;99.90;;;;;;5007809;28;20429;-67
2023/03/31 00:31:28;;;;;;;18.10;3.08;;;9.70;99.90;;;;;;4998198;28;20109;-70
2023/03/31 00:33:55;;;;;;;13.10;2.33;;;9.80;99.90;;;;;;4998682;28;20037;-80
2023/03/31 00:36:26;;;;;;;12.75;3.60;;;9.80;99.90;;;;;;4999129;28;20461;-73
2023/03/31 00:38:52;;;;;;;14.70;2.50;;;9.90;99.90;;;;;;4998068;28;20046;-75
2023/03/31 00:41:18;;;;;;;19.30;3.63;;;9.90;99.90;;;;;;5013601;28;20018;-79
2023/03/31 00:44:07;;;;;;;17.93;2.63;;;9.80;99.90;;;;;;5002956;28;20026;-73
2023/03/31 00:46:51;;;;;;;17.20;2.50;;;9.80;99.90;;;;;;5017665;28;20030;-77
2023/03/31 00:49:44;;;;;;;14.73;2.53;;;9.90;99.90;;;;;;5007057;28;20026;-76
2023/03/31 00:52:25;;;;;;;9.98;2.30;;;9.90;99.90;;;;;;4998864;28;20029;-71
2023/03/31 00:54:56;;;;;;;17.33;2.33;;;10.00;99.90;;;;;;5017557;28;20044;-70
2023/03/31 00:57:23;;;;;;;6.07;2.35;;;9.90;99.90;;;;;;5003465;28;20026;-69
2023/03/31 00:59:52;;;;;;;16.88;3.20;;;9.90;99.90;;;;;;5005851;28;20501;-65
2023/03/31 01:02:24;;;;;;;20.73;2.33;;;10.00;99.90;;;;;;4998665;28;20041;-66
2023/03/31 01:04:56;;;;;;;14.23;3.03;;;10.00;99.90;;;;;;4991284;28;20030;-75
2023/03/31 01:07:32;;;;;;;14.75;2.83;;;10.00;99.90;;;;;;4999718;28;20034;-78
2023/03/31 01:10:00;;;;;;;15.68;2.88;;;10.10;99.90;;;;;;4991505;28;20036;-76
2023/03/31 01:12:26;;;;;;;13.23;2.67;;;10.20;99.90;;;;;;5002062;28;20046;-70
2023/03/31 01:14:53;;;;;;;18.70;2.80;;;10.20;99.90;;;;;;5005542;28;20030;-67
2023/03/31 01:17:20;;;;;;;;;;;10.20;99.90;;;;;;5005706;28;20037;-66
2023/03/31 01:20:22;;;;;;;12.25;2.90;;;10.20;99.90;;;;;;4997559;28;20305;-74
2023/03/31 01:23:25;;;;;;;11.70;2.13;;;10.30;99.90;;;;;;4993827;28;20054;-78
2023/03/31 01:26:19;;;;;;;12.00;2.13;;;10.30;99.90;;;;;;4999182;28;20034;-75
2023/03/31 01:29:10;;;;;;;9.50;2.20;;;10.30;99.90;;;;;;5008351;28;20092;-78
2023/03/31 01:32:26;;;;;;;17.52;2.28;;;10.30;99.90;;;;;;4985600;28;20050;-75
2023/03/31 01:34:58;;;;;;;10.55;2.42;;;10.30;99.90;;;;;;4983483;28;20038;-74
2023/03/31 01:37:36;;;;;;;6.32;2.40;;;10.20;99.90;;;;;;5012840;28;20317;-74
2023/03/31 01:40:17;;;;;;;13.50;2.28;;;10.20;99.90;;;;;;4990947;28;20030;-76
2023/03/31 01:43:11;;;;;;;11.73;2.53;;;10.30;99.90;;;;;;4999853;28;20022;-67
2023/03/31 01:45:53;;;;;;;10.82;2.60;;;10.30;99.90;;;;;;5012012;28;20408;-71
2023/03/31 01:48:33;;;;;;;15.00;1.88;;;10.30;99.90;;;;;;4999481;28;20015;-69
2023/03/31 01:51:37;;;;;;;7.45;2.10;;;10.30;99.90;;;;;;5004828;28;20026;-72
2023/03/31 01:54:41;;;;;;;12.75;2.78;;;10.40;99.90;;;;;;4974134;28;20102;-78
2023/03/31 01:57:15;;;;;;;9.60;2.70;;;10.40;99.90;;;;;;4971506;28;20050;-76
2023/03/31 01:59:52;;;;;;;10.02;2.20;;;10.40;99.90;;;;;;4975743;28;20086;-69
2023/03/31 02:02:27;;;;;;;13.50;2.58;;;10.40;99.90;;;;;;4975589;28;20058;-73
2023/03/31 02:04:58;;;;;;;14.95;2.45;;;10.40;99.90;;;;;;4973407;28;20149;-73
2023/03/31 02:07:56;;;;;;;10.60;2.35;;;10.40;99.90;;;;;;4975498;28;20257;-74
2023/03/31 02:10:25;;;;;;;14.38;3.22;;;10.40;99.90;;;;;;4971582;28;20090;-74
2023/03/31 02:12:52;;;;;;;16.67;2.67;;;10.40;99.90;;;;;;4955307;28;20054;-69
2023/03/31 02:15:26;;;;;;;;;;;10.40;99.90;;;;;;4947952;28;20080;-77
2023/03/31 02:17:55;;;;;;;13.27;3.25;;;10.40;99.90;;;;;;4940302;28;19921;-70
2023/03/31 02:20:22;;;;;;;13.93;2.80;;;10.40;99.90;;;;;;4956098;28;20028;-66
2023/03/31 02:22:54;;;;;;;16.00;3.10;;;10.40;99.90;;;;;;4956947;28;20041;-77
2023/03/31 02:25:24;;;;;;;13.43;2.80;;;10.40;99.90;;;;;;4964557;28;20031;-75
2023/03/31 02:28:11;;;;;;;10.18;3.03;;;10.40;99.90;;;;;;4956532;28;20438;-78
2023/03/31 02:31:06;;;;;;;12.85;2.83;;;10.40;99.90;;;;;;4994313;28;20052;-76
2023/03/31 02:33:32;;;;;;;12.30;3.03;;;10.50;99.90;;;;;;4984348;28;20014;-77
2023/03/31 02:35:59;;;;;;;15.50;2.90;;;10.50;99.90;;;;;;4996111;28;20730;-71
2023/03/31 02:38:25;;;;;;;;;;;10.50;99.90;;;;;;4986143;28;20444;-76
2023/03/31 02:40:51;;;;;;;8.00;2.78;;;10.50;99.90;;;;;;5003954;28;19914;-79
2023/03/31 02:43:17;;;;;;;14.23;3.03;;;10.50;99.90;;;;;;4997465;28;20030;-80
2023/03/31 02:45:45;;;;;;;14.27;3.87;;;10.50;99.90;;;;;;4996470;28;20024;-73
2023/03/31 02:48:32;;;;;;;11.82;2.92;;;10.50;99.90;;;;;;4992058;28;20113;-73
2023/03/31 02:51:07;;;;;;;12.27;3.33;;;10.50;99.90;;;;;;4996173;28;20058;-80
2023/03/31 02:53:57;;;;;;;12.27;2.83;;;10.50;99.90;;;;;;4996935;28;20029;-78
2023/03/31 02:56:26;;;;;;;11.07;3.00;;;10.40;99.90;;;;;;4984699;28;20074;-84
2023/03/31 02:59:22;;;;;;;13.25;3.60;;;10.40;99.90;;;;;;4985769;28;20032;-79
2023/03/31 03:02:06;;;;;;;11.32;3.10;;;10.40;99.90;;;;;;4998802;28;20022;-84
2023/03/31 03:04:36;;;;;;;13.00;3.15;;;10.40;99.90;;;;;;4998756;28;20046;-80
2023/03/31 03:07:28;;;;;;;12.68;3.15;;;10.30;99.90;;;;;;4988561;28;20029;-80
2023/03/31 03:10:16;;;;;;;14.57;3.10;;;10.30;99.90;;;;;;4978967;28;20121;-80
2023/03/31 03:13:00;;;;;;;9.82;2.75;;;10.30;99.90;;;;;;5000107;28;20122;-85
2023/03/31 03:15:35;;;;;;;11.95;2.90;;;10.20;99.90;;;;;;4992445;28;20033;-86
2023/03/31 03:18:03;;;;;;;13.18;2.45;;;10.20;99.90;;;;;;4996587;28;20113;-82
2023/03/31 03:20:32;;;;;;;7.05;1.88;;;10.20;99.90;;;;;;5006302;28;20030;-85
2023/03/31 03:22:58;;;;;;;10.00;2.20;;;10.20;99.90;;;;;;4998549;28;20077;-79
2023/03/31 03:25:24;;;;;;;15.43;3.33;;;10.20;99.90;;;;;;4987461;28;20105;-87
2023/03/31 03:27:51;;;;;;;10.50;2.67;;;10.20;99.90;;;;;;5010061;28;20030;-82
2023/03/31 03:30:18;;;;;;;10.20;3.70;;;10.20;99.90;;;;;;4997440;28;20018;-83
2023/03/31 03:32:45;;;;;;;8.65;3.65;;;10.20;99.90;;;;;;4997631;28;20044;-76
2023/03/31 03:35:10;;;;;;;;;;;10.30;99.90;;;;;;4999149;28;20026;-85
2023/03/31 03:37:36;;;;;;;10.93;3.83;;;10.30;99.90;;;;;;4997977;28;19905;-71
2023/03/31 03:40:04;;;;;;;12.23;4.13;;;10.40;99.90;;;;;;4983195;28;20018;-84
2023/03/31 03:42:31;;;;;;;16.73;4.28;;;10.40;99.90;;;;;;4991403;28;20499;-85
2023/03/31 03:44:56;;;;;;;13.13;4.20;;;10.40;99.90;;;;;;4994994;28;20030;-85
2023/03/31 03:47:22;;;;;;;15.00;3.60;;;10.30;99.90;;;;;;4996926;28;20031;-84
2023/03/31 03:49:48;;;;;;;12.67;4.13;;;10.40;99.90;;;;;;4999453;28;20026;-84
2023/03/31 03:52:14;;;;;;;18.00;3.93;;;10.40;99.90;;;;;;4988558;28;20022;-86
2023/03/31 03:54:40;;;;;;;9.77;3.88;;;10.30;99.90;;;;;;5001740;28;20085;-83
2023/03/31 03:57:06;;;;;;;13.37;3.27;;;10.40;99.90;;;;;;5009700;28;20026;-81
2023/03/31 03:59:32;;;;;;;14.93;3.17;;;10.30;99.90;;;;;;5007131;28;20072;-79
2023/03/31 04:01:57;;;;;;;7.83;3.23;;;10.30;99.90;;;;;;4996888;28;20027;-76
2023/03/31 04:04:23;;;;;;;8.60;2.57;;;10.30;99.90;;;;;;4997266;28;20037;-83
2023/03/31 04:06:49;;;;;;;14.30;3.30;;;10.30;99.90;;;;;;5009722;28;20025;-81
2023/03/31 04:09:15;;;;;;;7.07;3.00;;;10.30;99.90;;;;;;4995945;28;20030;-80
2023/03/31 04:11:40;;;;;;;11.47;2.70;;;10.30;99.90;;;;;;4995462;28;20473;-81
2023/03/31 04:14:06;;;;;;;8.97;2.70;;;10.20;99.90;;;;;;5009846;28;20032;-86
2023/03/31 04:16:33;;;;;;;4.90;2.00;;;10.20;99.90;;;;;;4982366;28;20078;-85
2023/03/31 04:19:02;;;;;;;11.73;2.40;;;10.20;99.90;;;;;;4992864;28;20117;-84
2023/03/31 04:21:29;;;;;;;8.70;2.47;;;10.20;99.90;;;;;;5008766;28;20019;-84
2023/03/31 04:24:00;;;;;;;;;;;10.20;99.90;;;;;;4979360;28;20050;-87
2023/03/31 04:26:41;;;;;;;8.75;1.90;;;10.20;99.90;;;;;;4995843;28;19910;-86
2023/03/31 04:29:15;;;;;;;10.88;2.20;;;10.20;99.90;;;;;;5004800;28;20085;-87
2023/03/31 04:31:41;;;;;;;11.30;2.78;;;10.10;99.90;;;;;;4998277;28;20022;-87
2023/03/31 04:34:12;;;;;;;9.65;2.65;;;10.10;99.90;;;;;;4998432;28;20152;-87
2023/03/31 04:36:41;;;;;;;6.07;2.20;;;10.10;99.90;;;;;;4995757;28;20032;-81
2023/03/31 04:39:09;;;;;;;8.27;2.33;;;10.20;99.90;;;;;;5007907;28;20101;-85
2023/03/31 04:41:35;;;;;;;9.77;3.00;;;10.20;99.90;;;;;;4985200;28;20038;-83
2023/03/31 04:44:01;;;;;;;5.87;2.70;;;10.20;99.90;;;;;;4996026;28;20038;-80
2023/03/31 04:46:27;;;;;;;7.38;2.53;;;10.20;99.90;;;;;;4995393;28;20271;-86
2023/03/31 04:48:53;;;;;;;5.87;2.17;;;10.20;99.90;;;;;;4997893;28;20030;-88
2023/03/31 04:51:19;;;;;;;6.97;2.73;;;10.20;99.90;;;;;;5000513;28;20026;-84
2023/03/31 04:53:45;;;;;;;8.17;1.87;;;10.20;99.90;;;;;;4985405;28;20027;-89
2023/03/31 04:56:11;;;;;;;7.32;2.30;;;10.10;99.90;;;;;;4999366;28;20128;-82
2023/03/31 04:58:37;;;;;;;5.10;1.60;;;10.10;99.90;;;;;;5017602;28;20018;-85
2023/03/31 05:01:05;;;;;;;9.70;2.37;;;10.10;99.90;;;;;;5018912;28;20421;-88
2023/03/31 05:03:31;;;;;;;4.30;1.52;;;10.10;99.90;;;;;;5015679;28;20018;-87
2023/03/31 05:05:57;;;;;;;6.80;1.77;;;10.10;99.90;;;;;;4999581;28;20074;-82
2023/03/31 05:08:22;;;;;;;8.07;2.20;;;10.10;99.90;;;;;;5004345;28;20128;-81
2023/03/31 05:10:48;;;;;;;12.07;2.67;;;10.10;99.90;;;;;;5005679;28;20038;-85
2023/03/31 05:13:14;;;;;;;15.90;2.33;;;10.10;99.90;;;;;;5014164;28;20042;-84
2023/03/31 05:15:39;;;;;;;8.20;2.50;;;10.10;99.90;;;;;;4998865;28;20113;-80
2023/03/31 05:18:06;;;;;;;10.20;2.47;;;10.10;99.90;;;;;;4987595;28;20030;-85
2023/03/31 05:20:32;;;;;;;9.48;2.70;;;10.10;99.90;;;;;;4981442;28;20029;-83
2023/03/31 05:22:58;;;;;;;6.97;2.30;;;10.10;99.90;;;;;;5003568;28;20022;-85
2023/03/31 05:25:23;;;;;;;13.40;3.03;;;10.20;99.90;;;;;;5001022;28;20060;-78
2023/03/31 05:27:49;;;;;;;12.20;2.50;;;10.20;99.90;;;;;;5000525;28;20428;-84
2023/03/31 05:30:16;;;;;;;6.10;2.17;;;10.20;99.90;;;;;;5000767;28;20079;-81
2023/03/31 05:32:42;;;;;;;;;;;10.20;99.90;;;;;;5016536;28;20033;-84
2023/03/31 05:35:09;;;;;;;9.13;2.20;;;10.10;99.90;;;;;;5010733;28;20490;-81
2023/03/31 05:37:34;;;;;;;;;;;10.20;99.90;;;;;;4994801;28;20018;-85
2023/03/31 05:40:00;;;;;;;8.63;1.83;;;10.20;99.90;;;;;;4998427;28;19993;-82
2023/03/31 05:42:26;;;;;;;2.90;2.17;;;10.20;99.90;;;;;;5009550;28;20099;-85
2023/03/31 05:44:51;;;;;;;12.73;2.30;;;10.20;99.90;;;;;;5001751;28;20034;-83
2023/03/31 05:47:17;;;;;;;8.60;2.20;;;10.20;99.90;;;;;;4998405;28;20031;-83
2023/03/31 05:49:43;;;;;;;9.23;1.63;;;10.20;99.90;;;;;;4998671;28;20071;-85
2023/03/31 05:52:11;;;;;;;11.97;2.50;;;10.20;99.90;;;;;;4998014;28;20353;-85
2023/03/31 05:54:36;;;;;;;10.02;1.65;;;10.20;99.90;;;;;;4998429;28;20022;-85
2023/03/31 05:57:02;;;;;;;11.40;2.30;;;10.20;99.90;;;;;;4998228;28;20040;-82
2023/03/31 05:59:28;;;;;;;7.40;1.75;;;10.20;99.90;;;;;;4999824;28;20030;-81
2023/03/31 06:01:54;;;;;;;6.40;2.10;;;10.20;99.90;;;;;;4999241;28;20030;-81
2023/03/31 06:04:20;;;;;;;6.43;1.53;;;10.30;99.90;;;;;;4982154;28;20030;-85
2023/03/31 06:06:49;;;;;;;3.50;1.70;;;10.20;99.90;;;;;;5011600;28;20034;-83
2023/03/31 06:09:15;;;;;;;9.27;1.88;;;10.20;99.90;;;;;;4988858;28;20049;-83
2023/03/31 06:11:40;;;;;;;5.20;1.80;;;10.30;99.90;;;;;;5012745;28;20081;-82
2023/03/31 06:14:06;;;;;;;6.77;1.83;;;10.30;99.90;;;;;;5013679;28;20298;-81
2023/03/31 06:16:32;;;;;;;3.83;1.37;;;10.20;99.90;;;;;;5009004;28;20022;-81
2023/03/31 06:18:57;;;;;;;8.97;1.93;;;10.30;99.90;;;;;;5011238;28;20076;-85
2023/03/31 06:21:23;;;;;;;5.17;1.97;;;10.20;99.90;;;;;;5003610;28;20032;-85
2023/03/31 06:23:49;;;;;;;3.50;1.60;;;10.30;99.90;;;;;;5005074;28;20022;-83
2023/03/31 06:26:18;;;;;;;14.07;2.23;;;10.30;99.90;;;;;;4996204;28;20037;-82
2023/03/31 06:28:45;;;;;;;10.07;1.58;;;10.30;99.90;;;;;;4997264;28;20054;-76
2023/03/31 06:31:17;;;;;;;10.10;1.65;;;10.30;99.90;;;;;;4995985;28;20030;-80
2023/03/31 06:33:43;;;;;;;8.20;2.17;;;10.30;99.90;;;;;;4998244;28;20026;-83
2023/03/31 06:36:11;;;;;;;7.97;1.73;;;10.20;99.90;;;;;;4997579;28;20032;-85
2023/03/31 06:38:37;;;;;;;3.78;1.67;;;10.30;99.90;;;;;;5005155;28;20032;-85
2023/03/31 06:41:04;;;;;;;4.47;1.90;;;10.30;99.90;;;;;;5002485;28;20034;-82
2023/03/31 06:43:29;;;;;;;10.00;2.15;;;10.30;99.90;;;;;;5010424;28;20034;-83
2023/03/31 06:45:55;;;;;;;2.87;1.37;;;10.40;99.90;;;;;;4996995;28;20026;-84
2023/03/31 06:48:25;;;;;;;7.17;2.03;;;10.40;99.90;;;;;;5006757;28;20109;-77
2023/03/31 06:50:52;;;;;;;5.72;1.60;;;10.40;99.90;;;;;;5007321;28;20290;-82
2023/03/31 06:53:18;;;;;;;10.57;1.73;;;10.50;99.90;;;;;;4999094;28;20402;-81
2023/03/31 06:55:43;;;;;;;5.13;1.60;;;10.50;99.90;;;;;;4996753;28;20029;-81
2023/03/31 06:58:10;;;;;;;6.50;1.50;;;10.50;99.90;;;;;;4996489;28;20069;-79
2023/03/31 07:00:36;;;;;;;5.55;1.60;;;10.60;99.90;;;;;;4995949;28;20032;-87
2023/03/31 07:03:03;;;;;;;15.40;1.43;;;10.50;99.90;;;;;;5003177;28;20414;-85
2023/03/31 07:05:29;;;;;;;9.02;1.77;;;10.50;99.90;;;;;;4996267;28;20258;-84
2023/03/31 07:07:57;;;;;;;8.25;1.55;;;10.50;99.90;;;;;;4996596;28;20026;-86
2023/03/31 07:10:25;;;;;;;5.72;1.55;;;10.50;99.90;;;;;;4996412;28;20424;-82
2023/03/31 07:12:51;;;;;;;8.80;1.75;;;10.60;99.90;;;;;;5008384;28;20049;-84
2023/03/31 07:15:17;;;;;;;7.07;1.63;;;10.50;99.90;;;;;;5016137;28;20148;-83
2023/03/31 07:17:43;;;;;;;2.95;1.35;;;10.50;99.90;;;;;;4997915;28;20113;-81
2023/03/31 07:20:11;;;;;;;4.63;1.43;;;10.50;99.90;;;;;;5006257;28;20106;-85
2023/03/31 07:22:40;;;;;;;9.27;1.45;;;10.60;99.90;;;;;;4992244;28;20022;-85
2023/03/31 07:25:07;;;;;;;8.68;1.40;;;10.60;99.90;;;;;;4996426;28;20084;-84
2023/03/31 07:27:33;;;;;;;5.75;1.60;;;10.60;99.90;;;;;;4996592;28;20038;-83
2023/03/31 07:29:58;;;;;;;3.67;1.23;;;10.60;99.90;;;;;;4998515;28;20026;-83
2023/03/31 07:32:24;;;;;;;4.20;0.83;;;10.60;99.90;;;;;;5003006;28;20303;-83
2023/03/31 07:34:50;;;;;;;7.97;1.20;;;10.60;99.90;;;;;;5014636;28;20100;-86
2023/03/31 07:37:16;;;;;;;4.30;1.00;;;10.60;99.90;;;;;;4993249;28;20109;-79
2023/03/31 07:39:41;;;;;;;5.37;0.93;;;10.60;99.90;;;;;;4998521;28;20030;-85
2023/03/31 07:42:07;;;;;;;5.27;1.30;;;10.60;99.90;;;;;;5006952;28;20026;-84
2023/03/31 07:44:34;;;;;;;1.73;0.97;;;10.60;99.90;;;;;;4996097;28;20022;-82
2023/03/31 07:47:03;;;;;;;2.78;1.13;;;10.60;99.90;;;;;;4985538;28;20025;-83
2023/03/31 07:49:29;;;;;;;6.28;1.20;;;10.60;99.90;;;;;;5003858;28;20027;-83
2023/03/31 07:51:55;;;;;;;7.88;1.50;;;10.70;99.90;;;;;;4995433;28;20330;-83
2023/03/31 07:54:21;;;;;;;3.33;1.33;;;10.70;99.90;;;;;;4994792;28;20066;-79
2023/03/31 07:56:47;;;;;;;7.43;1.90;;;10.80;99.90;;;;;;4995567;28;20073;-83
2023/03/31 07:59:12;;;;;;;13.77;1.57;;;10.80;99.90;;;;;;5005433;28;20022;-79
2023/03/31 08:01:38;;;;;;;15.50;1.30;;;10.90;99.90;;;;;;5014795;28;20318;-82
2023/03/31 08:04:04;;;;;;;4.07;1.20;;;11.00;99.90;;;;;;4989432;28;20025;-82
2023/03/31 08:06:30;;;;;;;3.70;1.23;;;11.10;99.90;;;;;;5001763;28;20045;-85
2023/03/31 08:08:57;;;;;;;2.57;1.37;;;11.10;99.90;;;;;;5009168;28;20029;-79
2023/03/31 08:11:23;;;;;;;4.95;1.90;;;11.20;99.90;;;;;;4989605;28;20148;-77
2023/03/31 08:13:49;;;;;;;4.50;1.88;;;11.20;99.90;;;;;;4994537;28;20030;-80
2023/03/31 08:16:15;;;;;;;3.77;1.83;;;11.10;99.90;;;;;;4978398;28;20362;-82
2023/03/31 08:18:41;;;;;;;4.95;1.48;;;11.10;99.90;;;;;;4978378;28;20030;-85
2023/03/31 08:21:08;;;;;;;8.73;1.97;;;11.20;99.90;;;;;;4999069;28;20409;-81
2023/03/31 08:23:34;;;;;;;9.55;2.67;;;11.30;99.90;;;;;;5006955;28;20354;-83
2023/03/31 08:26:16;;;;;;;8.57;2.22;;;11.40;99.90;;;;;;4999142;28;20033;-80
2023/03/31 08:28:42;;;;;;;6.70;2.10;;;11.50;99.90;;;;;;5003515;28;20030;-81
2023/03/31 08:31:09;;;;;;;17.03;3.07;;;11.80;99.90;;;;;;4995434;28;20033;-81
2023/03/31 08:33:36;;;;;;;8.18;2.72;;;12.10;99.90;;;;;;4990417;28;20422;-81
2023/03/31 08:36:09;;;;;;;6.78;2.15;;;12.30;99.90;;;;;;5000213;28;20314;-80
2023/03/31 08:38:45;;;;;;;11.32;2.75;;;12.30;99.90;;;;;;4989259;28;20018;-82
2023/03/31 08:41:25;;;;;;;10.57;2.17;;;12.30;99.90;;;;;;4997043;28;20029;-80
2023/03/31 08:43:56;;;;;;;11.88;2.58;;;12.30;99.90;;;;;;4981816;28;20141;-82
2023/03/31 08:46:22;;;;;;;6.82;2.38;;;12.30;99.90;;;;;;4995121;28;20038;-84
2023/03/31 08:48:53;;;;;;;11.10;2.83;;;12.50;99.90;;;;;;4993410;28;20036;-82
2023/03/31 08:51:24;;;;;;;7.05;1.85;;;12.50;99.90;;;;;;4996438;28;20041;-82
2023/03/31 08:54:06;;;;;;;7.97;2.47;;;12.50;99.90;;;;;;4985962;28;20347;-85
2023/03/31 08:56:40;;;;;;;9.70;2.33;;;12.60;99.90;;;;;;4983550;28;20022;-85
2023/03/31 08:59:32;;;;;;;15.07;2.95;;;12.60;99.90;;;;;;5001157;28;20030;-85
2023/03/31 09:02:12;;;;;;;6.78;2.60;;;12.60;99.90;;;;;;5007757;28;20022;-83
2023/03/31 09:04:50;;;;;;;10.18;2.72;;;12.60;99.90;;;;;;5006962;28;20037;-83
2023/03/31 09:07:19;;;;;;;7.57;1.95;;;12.70;99.90;;;;;;4981847;28;20081;-84
2023/03/31 09:10:11;;;;;;;12.98;3.28;;;12.70;99.90;;;;;;4999357;28;20018;-82
2023/03/31 09:12:59;;;;;;;6.40;1.75;;;12.70;99.90;;;;;;5011586;28;20173;-87
2023/03/31 09:15:54;;;;;;;7.72;2.38;;;12.60;99.90;;;;;;5001086;28;20029;-85
2023/03/31 09:18:37;;;;;;;4.20;1.90;;;12.50;99.90;;;;;;4995066;28;20117;-85
2023/03/31 09:21:28;;;;;;;16.60;2.50;;;12.30;99.90;;;;;;5000890;28;20026;-87
2023/03/31 09:24:02;;;;;;;8.35;2.28;;;12.30;99.90;;;;;;4988389;28;20436;-87
2023/03/31 09:26:41;;;;;;;8.48;2.40;;;12.30;99.90;;;;;;4994942;28;20021;-80
2023/03/31 09:29:19;;;;;;;12.10;2.05;;;12.20;99.90;;;;;;4998344;28;20026;-86
2023/03/31 09:31:46;;;;;;;8.73;1.92;;;12.30;99.90;;;;;;4998285;28;20038;-82
2023/03/31 09:34:22;;;;;;;27.45;2.50;;;12.40;99.90;;;;;;4997482;28;20022;-83
2023/03/31 09:36:47;;;;;;;17.75;2.88;;;12.50;99.90;;;;;;4984173;28;20053;-78
2023/03/31 09:39:14;;;;;;;13.57;2.67;;;12.60;99.90;;;;;;4993797;28;20061;-80
2023/03/31 09:41:48;;;;;;;13.07;2.42;;;12.70;99.90;;;;;;4981216;28;20029;-79
2023/03/31 09:44:33;;;;;;;8.52;2.15;;;12.90;99.90;;;;;;4987076;28;20030;-82
2023/03/31 09:47:02;;;;;;;14.68;2.70;;;13.00;99.90;;;;;;4980302;28;20033;-81
2023/03/31 09:49:33;;;;;;;13.70;2.60;;;13.00;99.90;;;;;;4997691;28;20040;-76
2023/03/31 09:52:05;;;;;;;13.85;3.17;;;13.10;99.90;;;;;;4997553;28;20410;-80
2023/03/31 09:54:39;;;;;;;10.18;2.60;;;13.20;99.90;;;;;;4980510;28;20121;-81
2023/03/31 09:57:33;;;;;;;11.20;2.28;;;13.20;99.90;;;;;;4983344;28;20141;-82
2023/03/31 10:00:13;;;;;;;14.75;2.58;;;13.20;99.90;;;;;;4987524;28;20121;-82
2023/03/31 10:03:01;;;;;;;9.90;2.15;;;13.20;99.90;;;;;;4989786;28;20022;-81
2023/03/31 10:05:36;;;;;;;14.00;3.03;;;13.10;99.90;;;;;;4996527;28;20044;-79
2023/03/31 10:08:33;;;;;;;8.13;2.10;;;13.10;99.90;;;;;;4998168;28;20033;-83
2023/03/31 10:11:05;;;;;;;15.77;2.03;;;13.00;99.90;;;;;;4967584;28;20088;-78
2023/03/31 10:13:58;;;;;;;12.13;2.08;;;13.00;99.90;;;;;;4999317;28;20421;-79
2023/03/31 10:16:32;;;;;;;11.65;2.95;;;13.00;99.90;;;;;;4979778;28;20049;-84
2023/03/31 10:19:20;;;;;;;10.43;2.15;;;13.00;99.90;;;;;;4997447;28;20059;-82
2023/03/31 10:21:53;;;;;;;10.77;2.78;;;13.00;99.90;;;;;;5016132;28;20433;-81
2023/03/31 10:24:19;;;;;;;11.73;2.67;;;13.00;99.90;;;;;;5000690;28;20038;-84
2023/03/31 10:26:51;;;;;;;10.03;2.10;;;12.90;99.90;;;;;;4997878;28;20420;-80
2023/03/31 10:29:24;;;;;;;15.82;2.60;;;13.00;99.90;;;;;;5010175;28;20033;-79
2023/03/31 10:31:50;;;;;;;11.98;2.95;;;13.10;99.90;;;;;;4996802;28;20093;-77
2023/03/31 10:34:17;;;;;;;16.88;2.28;;;13.10;99.90;;;;;;4993063;28;20113;-86
2023/03/31 10:36:50;;;;;;;19.67;2.22;;;13.10;99.90;;;;;;5004198;28;20026;-83
2023/03/31 10:39:17;;;;;;;17.63;2.03;;;13.10;99.90;;;;;;4992852;28;20390;-81
2023/03/31 10:41:52;;;;;;;16.55;2.97;;;13.10;99.90;;;;;;4996654;28;20057;-84
2023/03/31 10:44:37;;;;;;;9.35;2.10;;;13.10;99.90;;;;;;4992071;28;20037;-81
2023/03/31 10:47:11;;;;;;;9.15;2.00;;;12.90;99.90;;;;;;5005833;28;20034;-87
2023/03/31 10:49:39;;;;;;;7.47;1.73;;;12.90;99.90;;;;;;4996508;28;20033;-81
2023/03/31 10:52:21;;;;;;;11.88;2.20;;;12.90;99.90;;;;;;4982416;28;20018;-80
2023/03/31 10:55:00;;;;;;;7.35;1.60;;;12.80;99.90;;;;;;4995159;28;20026;-80
2023/03/31 10:57:41;;;;;;;11.50;2.45;;;12.80;99.90;;;;;;4984524;28;20022;-81
2023/03/31 11:00:12;;;;;;;11.32;2.10;;;12.80;99.90;;;;;;4997170;28;20053;-79
2023/03/31 11:02:53;;;;;;;6.60;1.90;;;12.70;99.90;;;;;;4993432;28;20109;-77
2023/03/31 11:05:44;;;;;;;9.95;1.80;;;12.60;99.90;;;;;;4981856;28;20045;-76
2023/03/31 11:08:48;;;;;;;15.27;2.90;;;12.50;99.90;;;;;;4994627;28;20100;-81
2023/03/31 11:11:32;;;;;;;13.38;2.67;;;12.70;99.90;;;;;;5007127;28;20026;-78
2023/03/31 11:14:10;;;;;;;10.93;2.67;;;12.60;99.90;;;;;;4978630;28;20027;-81
2023/03/31 11:16:57;;;;;;;9.02;2.00;;;12.50;99.90;;;;;;4996228;28;20093;-79
2023/03/31 11:19:36;;;;;;;15.73;2.08;;;12.40;99.90;;;;;;4996509;28;20100;-84
2023/03/31 11:22:24;;;;;;;12.52;2.38;;;12.20;99.90;;;;;;4998586;28;20040;-78
2023/03/31 11:25:15;;;;;;;15.10;2.33;;;12.10;99.90;;;;;;4993060;28;20491;-81
2023/03/31 11:28:08;;;;;;;13.43;2.72;;;12.00;99.90;;;;;;4999307;28;20041;-80
2023/03/31 11:31:10;;;;;;;8.65;1.80;;;12.00;99.90;;;;;;4996131;28;20041;-79
2023/03/31 11:33:51;;;;;;;8.40;1.77;;;12.20;99.90;;;;;;4995635;28;20034;-79
2023/03/31 11:36:44;;;;;;;9.15;1.95;;;12.40;99.90;;;;;;4993112;28;20065;-79
2023/03/31 11:39:21;;;;;;;10.57;2.08;;;12.70;99.90;;;;;;5015519;28;20041;-76
2023/03/31 11:41:52;;;;;;;;;;;12.70;99.90;;;;;;4984667;28;20033;-80
2023/03/31 11:44:19;;;;;;;17.50;2.25;;;12.70;99.90;;;;;;5002890;28;19992;-83
2023/03/31 11:46:48;;;;;;;8.00;1.45;;;12.80;99.90;;;;;;4983008;28;20161;-82
2023/03/31 11:49:47;;;;;;;12.23;1.92;;;12.90;99.90;;;;;;5007170;28;20038;-76
2023/03/31 11:52:21;;;;;;;6.20;1.42;;;12.90;99.90;;;;;;4985923;28;20329;-79
2023/03/31 11:55:00;;;;;;;5.05;1.65;;;13.00;99.90;;;;;;4982642;28;20362;-81
2023/03/31 11:57:31;;;;;;;8.30;2.08;;;12.90;99.90;;;;;;4996844;28;20038;-86
2023/03/31 12:00:10;;;;;;;7.53;1.63;;;12.80;99.90;;;;;;5004524;28;20033;-80
2023/03/31 12:02:36;;;;;;;11.60;1.83;;;12.70;99.90;;;;;;5012080;28;20053;-80
2023/03/31 12:05:05;;;;;;;5.17;1.40;;;12.70;99.90;;;;;;4985536;28;20033;-83
2023/03/31 12:07:37;;;;;;;7.75;2.00;;;12.60;99.90;;;;;;5001880;28;20073;-79
2023/03/31 12:10:29;;;;;;;5.68;1.67;;;12.50;99.90;;;;;;5001610;28;20022;-78
2023/03/31 12:13:16;;;;;;;3.75;1.30;;;12.40;99.90;;;;;;4999223;28;20057;-86
2023/03/31 12:15:51;;;;;;;5.40;1.58;;;12.40;99.90;;;;;;4992001;28;20438;-81
2023/03/31 12:18:23;;;;;;;8.45;1.40;;;12.30;99.90;;;;;;5004344;28;20049;-80
2023/03/31 12:20:52;;;;;;;8.35;1.38;;;12.40;99.90;;;;;;5006011;28;20023;-85
2023/03/31 12:23:23;;;;;;;5.60;1.45;;;12.40;99.90;;;;;;5001862;28;20022;-80
2023/03/31 12:25:58;;;;;;;6.85;1.23;;;12.40;99.90;;;;;;5010634;28;20026;-87
2023/03/31 12:28:26;;;;;;;6.63;1.95;;;12.30;99.90;;;;;;5012165;28;20014;-79
2023/03/31 12:30:54;;;;;;;4.97;1.55;;;12.30;99.90;;;;;;5000849;28;20076;-84
2023/03/31 12:33:41;;;;;;;9.30;1.10;;;12.30;99.90;;;;;;5014500;28;20022;-78
2023/03/31 12:36:15;;;;;;;6.65;1.17;;;12.30;99.90;;;;;;5010806;28;20033;-77
2023/03/31 12:39:11;;;;;;;7.75;1.13;;;12.30;99.90;;;;;;5004715;28;20117;-79
2023/03/31 12:42:03;;;;;;;5.88;1.40;;;12.30;99.90;;;;;;5001730;28;20030;-82
2023/03/31 12:44:36;;;;;;;8.35;1.17;;;12.40;99.90;;;;;;5010046;28;20104;-77
2023/03/31 12:47:14;;;;;;;7.03;1.10;;;12.50;99.90;;;;;;5006082;28;20119;-82
2023/03/31 12:49:49;;;;;;;9.05;1.35;;;12.50;99.90;;;;;;5003121;28;20018;-82
2023/03/31 12:52:36;;;;;;;5.90;1.45;;;12.50;99.90;;;;;;5001073;28;20057;-82
2023/03/31 12:55:08;;;;;;;4.45;1.10;;;12.50;99.90;;;;;;4990938;28;20089;-78
2023/03/31 12:57:34;;;;;;;5.63;1.30;;;12.60;99.90;;;;;;4998317;28;20026;-81
2023/03/31 13:00:21;;;;;;;4.20;1.00;;;12.60;99.90;;;;;;5004644;28;20314;-80
2023/03/31 13:02:48;;;;;;;5.80;1.48;;;12.60;99.90;;;;;;5007882;28;20353;-80
2023/03/31 13:05:36;;;;;;;7.40;1.55;;;12.60;99.90;;;;;;5004274;28;20037;-68
2023/03/31 13:08:07;;;;;;;9.10;1.52;;;12.60;99.90;;;;;;5019930;28;20436;-68
2023/03/31 13:10:53;;;;;;;8.60;2.00;;;12.60;99.90;;;;;;4998760;28;20321;-66
2023/03/31 13:13:19;;;;;;;11.35;1.90;;;12.50;99.90;;;;;;5007527;28;20096;-65
2023/03/31 13:15:56;;;;;;;6.03;1.92;;;12.40;99.90;;;;;;5004120;28;20030;-66